Puerto Barrios, Guatemala
Current Conditions -  °F | °C
As of 8:00 AM on Wednesday 26 Nov 2014 (Local Time) from MGPB Reporting Station
Light Rain Light Rain  
Wind Chill: 75°   Ceiling: 8000
Heat Index: 75°   Visibility: 3mi
Dew Point: 75°   Wind: 0mph
Humidity: 100%   Direction: NA
Pressure: 30.06"   Gusts: NA
Location:  15.73°N, 88.6°W
Report Text: MGPB 261400Z 00000KT 5000 -RA BR SCT012 OVC080 24/24 Q1018 A3006
Loading
Personal Weather Stations






























Interactive Weather Map New forecast layout! Learn more

10-Day Weather Forecast

Advertisements
Track Severe Weather on mobile